sensor_id;sensor_type;location;lat;lon;timestamp;pressure;altitude;pressure_sealevel;temperature;humidity
49835;BME280;35729;52.090;13.162;2023-08-12T00:01:07;101379.00;;;19.08;65.35
49835;BME280;35729;52.090;13.162;2023-08-12T00:03:36;101377.28;;;19.07;65.71
49835;BME280;35729;52.090;13.162;2023-08-12T00:06:07;101383.66;;;19.03;65.33
49835;BME280;35729;52.090;13.162;2023-08-12T00:08:35;101379.34;;;19.00;65.46
49835;BME280;35729;52.090;13.162;2023-08-12T00:11:04;101379.50;;;18.97;65.57
49835;BME280;35729;52.090;13.162;2023-08-12T00:13:32;101375.28;;;18.93;65.92
49835;BME280;35729;52.090;13.162;2023-08-12T00:16:01;101378.88;;;18.92;66.11
49835;BME280;35729;52.090;13.162;2023-08-12T00:18:29;101373.66;;;18.89;66.60
49835;BME280;35729;52.090;13.162;2023-08-12T00:21:08;101376.38;;;18.87;66.46
49835;BME280;35729;52.090;13.162;2023-08-12T00:23:39;101375.59;;;18.85;66.91
49835;BME280;35729;52.090;13.162;2023-08-12T00:26:09;101374.81;;;18.83;66.75
49835;BME280;35729;52.090;13.162;2023-08-12T00:28:38;101382.88;;;18.82;66.83
49835;BME280;35729;52.090;13.162;2023-08-12T00:31:07;101381.13;;;18.81;66.91
49835;BME280;35729;52.090;13.162;2023-08-12T00:33:35;101374.16;;;18.78;67.20
49835;BME280;35729;52.090;13.162;2023-08-12T00:36:04;101371.63;;;18.75;67.11
49835;BME280;35729;52.090;13.162;2023-08-12T00:38:35;101365.47;;;18.75;67.40
49835;BME280;35729;52.090;13.162;2023-08-12T00:41:04;101359.34;;;18.72;67.45
49835;BME280;35729;52.090;13.162;2023-08-12T00:43:32;101360.28;;;18.71;67.57
49835;BME280;35729;52.090;13.162;2023-08-12T00:46:01;101361.28;;;18.69;68.04
49835;BME280;35729;52.090;13.162;2023-08-12T00:48:29;101361.44;;;18.66;67.68
49835;BME280;35729;52.090;13.162;2023-08-12T00:50:58;101357.97;;;18.64;68.01
49835;BME280;35729;52.090;13.162;2023-08-12T00:53:26;101345.69;;;18.61;68.00
49835;BME280;35729;52.090;13.162;2023-08-12T00:55:57;101346.63;;;18.60;68.61
49835;BME280;35729;52.090;13.162;2023-08-12T00:58:26;101348.50;;;18.58;68.65
49835;BME280;35729;52.090;13.162;2023-08-12T01:00:55;101342.47;;;18.54;68.28
49835;BME280;35729;52.090;13.162;2023-08-12T01:03:24;101334.56;;;18.53;68.71
49835;BME280;35729;52.090;13.162;2023-08-12T01:05:53;101338.22;;;18.50;68.51
49835;BME280;35729;52.090;13.162;2023-08-12T01:08:21;101331.25;;;18.48;68.67
49835;BME280;35729;52.090;13.162;2023-08-12T01:10:54;101338.44;;;18.46;68.92
49835;BME280;35729;52.090;13.162;2023-08-12T01:13:54;101333.38;;;18.39;69.26
49835;BME280;35729;52.090;13.162;2023-08-12T01:16:35;101329.09;;;18.37;69.46
49835;BME280;35729;52.090;13.162;2023-08-12T01:19:21;101320.31;;;18.35;69.70
49835;BME280;35729;52.090;13.162;2023-08-12T01:21:55;101318.72;;;18.31;69.72
49835;BME280;35729;52.090;13.162;2023-08-12T01:24:33;101315.31;;;18.29;69.88
49835;BME280;35729;52.090;13.162;2023-08-12T01:27:03;101311.91;;;18.25;69.79
49835;BME280;35729;52.090;13.162;2023-08-12T01:29:32;101304.00;;;18.23;70.12
49835;BME280;35729;52.090;13.162;2023-08-12T01:32:08;101307.72;;;18.19;70.20
49835;BME280;35729;52.090;13.162;2023-08-12T01:34:41;101298.09;;;18.17;70.26
49835;BME280;35729;52.090;13.162;2023-08-12T01:37:17;101296.44;;;18.14;70.77
49835;BME280;35729;52.090;13.162;2023-08-12T01:39:52;101285.97;;;18.11;70.61
49835;BME280;35729;52.090;13.162;2023-08-12T01:42:23;101286.03;;;18.10;70.50
49835;BME280;35729;52.090;13.162;2023-08-12T01:44:52;101285.31;;;18.06;70.92
49835;BME280;35729;52.090;13.162;2023-08-12T01:47:21;101288.97;;;18.03;71.29
49835;BME280;35729;52.090;13.162;2023-08-12T01:49:49;101289.03;;;18.02;71.52
49835;BME280;35729;52.090;13.162;2023-08-12T01:52:18;101289.91;;;18.02;71.40
49835;BME280;35729;52.090;13.162;2023-08-12T01:54:46;101284.72;;;17.99;71.21
49835;BME280;35729;52.090;13.162;2023-08-12T01:57:17;101291.84;;;17.99;71.44
49835;BME280;35729;52.090;13.162;2023-08-12T01:59:46;101286.63;;;17.96;71.49
49835;BME280;35729;52.090;13.162;2023-08-12T02:02:14;101280.47;;;17.95;71.24
49835;BME280;35729;52.090;13.162;2023-08-12T02:04:43;101278.75;;;17.94;71.29
49835;BME280;35729;52.090;13.162;2023-08-12T02:07:11;101281.41;;;17.94;71.42
49835;BME280;35729;52.090;13.162;2023-08-12T02:09:40;101270.78;;;17.94;71.33
49835;BME280;35729;52.090;13.162;2023-08-12T02:12:08;101260.16;;;17.94;71.30
49835;BME280;35729;52.090;13.162;2023-08-12T02:14:39;101258.41;;;17.95;71.45
49835;BME280;35729;52.090;13.162;2023-08-12T02:17:08;101259.31;;;17.94;71.52
49835;BME280;35729;52.090;13.162;2023-08-12T02:19:33;101261.06;;;17.93;71.56
49835;BME280;35729;52.090;13.162;2023-08-12T02:22:02;101255.75;;;17.93;71.72
49835;BME280;35729;52.090;13.162;2023-08-12T02:24:31;101254.91;;;17.92;71.96
49835;BME280;35729;52.090;13.162;2023-08-12T02:27:00;101251.44;;;17.90;72.08
49835;BME280;35729;52.090;13.162;2023-08-12T02:29:28;101245.28;;;17.90;71.79
49835;BME280;35729;52.090;13.162;2023-08-12T02:31:59;101243.63;;;17.87;72.17
49835;BME280;35729;52.090;13.162;2023-08-12T02:34:28;101248.09;;;17.87;72.23
49835;BME280;35729;52.090;13.162;2023-08-12T02:36:56;101241.06;;;17.86;72.34
49835;BME280;35729;52.090;13.162;2023-08-12T02:39:24;101238.44;;;17.84;72.44
49835;BME280;35729;52.090;13.162;2023-08-12T02:41:53;101240.25;;;17.84;72.73
49835;BME280;35729;52.090;13.162;2023-08-12T02:44:21;101236.88;;;17.80;72.34
49835;BME280;35729;52.090;13.162;2023-08-12T02:46:50;101236.13;;;17.77;72.39
49835;BME280;35729;52.090;13.162;2023-08-12T02:49:21;101231.03;;;17.72;72.70
49835;BME280;35729;52.090;13.162;2023-08-12T02:51:49;101233.81;;;17.69;72.64
49835;BME280;35729;52.090;13.162;2023-08-12T02:54:18;101231.25;;;17.67;72.64
49835;BME280;35729;52.090;13.162;2023-08-12T02:56:46;101238.38;;;17.65;73.03
49835;BME280;35729;52.090;13.162;2023-08-12T02:59:15;101239.34;;;17.64;73.14
49835;BME280;35729;52.090;13.162;2023-08-12T03:01:43;101234.97;;;17.63;73.15
49835;BME280;35729;52.090;13.162;2023-08-12T03:04:12;101225.28;;;17.62;73.22
49835;BME280;35729;52.090;13.162;2023-08-12T03:06:43;101231.50;;;17.61;73.10
49835;BME280;35729;52.090;13.162;2023-08-12T03:09:11;101221.97;;;17.57;73.21
49835;BME280;35729;52.090;13.162;2023-08-12T03:11:40;101222.03;;;17.55;73.22
49835;BME280;35729;52.090;13.162;2023-08-12T03:14:08;101217.66;;;17.54;73.33
49835;BME280;35729;52.090;13.162;2023-08-12T03:16:37;101219.44;;;17.54;73.57
49835;BME280;35729;52.090;13.162;2023-08-12T03:19:05;101227.38;;;17.54;73.47
49835;BME280;35729;52.090;13.162;2023-08-12T03:21:34;101226.53;;;17.53;73.73
49835;BME280;35729;52.090;13.162;2023-08-12T03:24:05;101221.31;;;17.52;73.65
49835;BME280;35729;52.090;13.162;2023-08-12T03:26:34;101220.50;;;17.50;73.84
49835;BME280;35729;52.090;13.162;2023-08-12T03:29:03;101212.69;;;17.47;73.84
49835;BME280;35729;52.090;13.162;2023-08-12T03:31:31;101211.88;;;17.45;74.46
49835;BME280;35729;52.090;13.162;2023-08-12T03:34:00;101212.88;;;17.42;74.24
49835;BME280;35729;52.090;13.162;2023-08-12T03:36:29;101220.03;;;17.40;74.53
49835;BME280;35729;52.090;13.162;2023-08-12T03:38:57;101217.44;;;17.38;74.65
49835;BME280;35729;52.090;13.162;2023-08-12T03:41:28;101223.75;;;17.36;74.69
49835;BME280;35729;52.090;13.162;2023-08-12T03:43:57;101214.13;;;17.33;74.58
49835;BME280;35729;52.090;13.162;2023-08-12T03:46:25;101209.75;;;17.32;74.73
49835;BME280;35729;52.090;13.162;2023-08-12T03:48:54;101205.44;;;17.30;74.82
49835;BME280;35729;52.090;13.162;2023-08-12T03:51:22;101204.66;;;17.28;74.88
49835;BME280;35729;52.090;13.162;2023-08-12T03:53:51;101197.72;;;17.23;74.93
49835;BME280;35729;52.090;13.162;2023-08-12T03:56:19;101196.97;;;17.21;74.56
49835;BME280;35729;52.090;13.162;2023-08-12T03:58:51;101197.94;;;17.19;74.82
49835;BME280;35729;52.090;13.162;2023-08-12T04:01:19;101200.66;;;17.17;74.87
49835;BME280;35729;52.090;13.162;2023-08-12T04:03:47;101198.06;;;17.16;74.56
49835;BME280;35729;52.090;13.162;2023-08-12T04:06:16;101194.56;;;17.15;74.56
49835;BME280;35729;52.090;13.162;2023-08-12T04:08:44;101193.69;;;17.15;74.46
49835;BME280;35729;52.090;13.162;2023-08-12T04:11:13;101198.97;;;17.15;74.73
49835;BME280;35729;52.090;13.162;2023-08-12T04:13:41;101195.50;;;17.14;74.66
49835;BME280;35729;52.090;13.162;2023-08-12T04:16:12;101198.13;;;17.14;74.42
49835;BME280;35729;52.090;13.162;2023-08-12T04:18:41;101193.69;;;17.15;74.20
49835;BME280;35729;52.090;13.162;2023-08-12T04:21:09;101193.69;;;17.15;74.61
49835;BME280;35729;52.090;13.162;2023-08-12T04:23:38;101193.69;;;17.15;74.29
49835;BME280;35729;52.090;13.162;2023-08-12T04:26:07;101183.06;;;17.15;74.28
49835;BME280;35729;52.090;13.162;2023-08-12T04:28:35;101184.81;;;17.16;74.45
49835;BME280;35729;52.090;13.162;2023-08-12T04:31:06;101190.13;;;17.16;74.03
49835;BME280;35729;52.090;13.162;2023-08-12T04:33:37;101188.28;;;17.18;74.59
49835;BME280;35729;52.090;13.162;2023-08-12T04:36:06;101188.19;;;17.19;74.31
49835;BME280;35729;52.090;13.162;2023-08-12T04:38:35;101183.69;;;17.21;74.69
49835;BME280;35729;52.090;13.162;2023-08-12T04:41:04;101179.25;;;17.22;74.51
49835;BME280;35729;52.090;13.162;2023-08-12T04:43:33;101184.44;;;17.25;74.43
49835;BME280;35729;52.090;13.162;2023-08-12T04:46:01;101179.06;;;17.26;74.28
49835;BME280;35729;52.090;13.162;2023-08-12T04:48:31;101181.56;;;17.30;74.22
49835;BME280;35729;52.090;13.162;2023-08-12T04:51:02;101181.44;;;17.33;74.16
49835;BME280;35729;52.090;13.162;2023-08-12T04:53:31;101176.94;;;17.35;74.22
49835;BME280;35729;52.090;13.162;2023-08-12T04:55:59;101170.59;;;17.39;73.97
49835;BME280;35729;52.090;13.162;2023-08-12T04:58:27;101174.88;;;17.41;73.78
49835;BME280;35729;52.090;13.162;2023-08-12T05:00:56;101166.72;;;17.46;73.51
49835;BME280;35729;52.090;13.162;2023-08-12T05:03:25;101177.13;;;17.51;73.61
49835;BME280;35729;52.090;13.162;2023-08-12T05:05:51;101172.56;;;17.54;73.42
49835;BME280;35729;52.090;13.162;2023-08-12T05:08:23;101173.22;;;17.59;73.31
49835;BME280;35729;52.090;13.162;2023-08-12T05:10:51;101171.13;;;17.66;73.38
49835;BME280;35729;52.090;13.162;2023-08-12T05:13:20;101164.63;;;17.73;73.38
49835;BME280;35729;52.090;13.162;2023-08-12T05:15:49;101174.03;;;17.81;73.37
49835;BME280;35729;52.090;13.162;2023-08-12T05:18:17;101164.81;;;17.89;73.03
49835;BME280;35729;52.090;13.162;2023-08-12T05:20:46;101158.22;;;17.98;72.72
49835;BME280;35729;52.090;13.162;2023-08-12T05:23:14;101154.34;;;18.05;72.55
49835;BME280;35729;52.090;13.162;2023-08-12T05:25:46;101157.44;;;18.15;72.53
49835;BME280;35729;52.090;13.162;2023-08-12T05:28:14;101150.84;;;18.24;72.34
49835;BME280;35729;52.090;13.162;2023-08-12T05:30:43;101153.03;;;18.33;72.34
49835;BME280;35729;52.090;13.162;2023-08-12T05:33:11;101155.34;;;18.41;71.99
49835;BME280;35729;52.090;13.162;2023-08-12T05:35:39;101155.84;;;18.49;71.92
49835;BME280;35729;52.090;13.162;2023-08-12T05:38:08;101158.91;;;18.59;71.25
49835;BME280;35729;52.090;13.162;2023-08-12T05:40:36;101162.03;;;18.67;71.42
49835;BME280;35729;52.090;13.162;2023-08-12T05:43:07;101153.63;;;18.77;71.33
49835;BME280;35729;52.090;13.162;2023-08-12T05:45:36;101159.31;;;18.86;71.06
49835;BME280;35729;52.090;13.162;2023-08-12T05:48:05;101154.44;;;18.96;70.99
49835;BME280;35729;52.090;13.162;2023-08-12T05:50:34;101155.69;;;19.07;70.77
49835;BME280;35729;52.090;13.162;2023-08-12T05:53:03;101157.91;;;19.16;70.42
49835;BME280;35729;52.090;13.162;2023-08-12T05:55:33;101159.28;;;19.23;70.31
49835;BME280;35729;52.090;13.162;2023-08-12T05:58:01;101165.94;;;19.32;70.12
49835;BME280;35729;52.090;13.162;2023-08-12T06:00:33;101163.84;;;19.39;69.67
49835;BME280;35729;52.090;13.162;2023-08-12T06:03:01;101170.41;;;19.49;69.73
49835;BME280;35729;52.090;13.162;2023-08-12T06:05:29;101160.09;;;19.59;69.88
49835;BME280;35729;52.090;13.162;2023-08-12T06:07:58;101165.88;;;19.67;69.58
49835;BME280;35729;52.090;13.162;2023-08-12T06:10:26;101158.38;;;19.75;69.16
49835;BME280;35729;52.090;13.162;2023-08-12T06:12:55;101159.53;;;19.87;69.30
49835;BME280;35729;52.090;13.162;2023-08-12T06:15:23;101153.69;;;19.96;68.79
49835;BME280;35729;52.090;13.162;2023-08-12T06:17:54;101149.41;;;20.10;68.96
49835;BME280;35729;52.090;13.162;2023-08-12T06:20:23;101146.13;;;20.21;68.31
49835;BME280;35729;52.090;13.162;2023-08-12T06:22:52;101141.94;;;20.32;68.29
49835;BME280;35729;52.090;13.162;2023-08-12T06:25:20;101152.84;;;20.44;67.61
49835;BME280;35729;52.090;13.162;2023-08-12T06:27:49;101155.75;;;20.55;67.42
49835;BME280;35729;52.090;13.162;2023-08-12T06:30:17;101151.63;;;20.65;67.43
49835;BME280;35729;52.090;13.162;2023-08-12T06:32:46;101152.81;;;20.76;67.30
49835;BME280;35729;52.090;13.162;2023-08-12T06:35:17;101153.16;;;20.86;67.18
49835;BME280;35729;52.090;13.162;2023-08-12T06:37:46;101156.22;;;20.94;67.36
49835;BME280;35729;52.090;13.162;2023-08-12T06:40:14;101153.97;;;21.02;67.08
49835;BME280;35729;52.090;13.162;2023-08-12T06:42:43;101156.94;;;21.12;66.52
49835;BME280;35729;52.090;13.162;2023-08-12T06:45:11;101152.94;;;21.19;66.78
49835;BME280;35729;52.090;13.162;2023-08-12T06:47:40;101149.91;;;21.25;66.03
49835;BME280;35729;52.090;13.162;2023-08-12T06:50:09;101144.22;;;21.31;65.69
49835;BME280;35729;52.090;13.162;2023-08-12T06:52:40;101148.31;;;21.37;65.59
49835;BME280;35729;52.090;13.162;2023-08-12T06:55:08;101143.56;;;21.42;65.90
49835;BME280;35729;52.090;13.162;2023-08-12T06:57:37;101137.06;;;21.46;65.71
49835;BME280;35729;52.090;13.162;2023-08-12T07:00:12;101145.66;;;21.52;65.10
49835;BME280;35729;52.090;13.162;2023-08-12T07:02:40;101135.69;;;21.55;65.21
49835;BME280;35729;52.090;13.162;2023-08-12T07:05:09;101138.94;;;21.60;64.94
49835;BME280;35729;52.090;13.162;2023-08-12T07:07:40;101135.09;;;21.64;64.44
49835;BME280;35729;52.090;13.162;2023-08-12T07:10:09;101124.03;;;21.71;64.01
49835;BME280;35729;52.090;13.162;2023-08-12T07:12:38;101132.44;;;21.79;63.77
49835;BME280;35729;52.090;13.162;2023-08-12T07:15:08;101119.44;;;21.87;63.58
49835;BME280;35729;52.090;13.162;2023-08-12T07:17:36;101126.91;;;21.96;63.54
49835;BME280;35729;52.090;13.162;2023-08-12T07:20:11;101122.47;;;22.10;63.58
49835;BME280;35729;52.090;13.162;2023-08-12T07:22:42;101112.88;;;22.20;63.35
49835;BME280;35729;52.090;13.162;2023-08-12T07:25:11;101113.03;;;22.32;62.56
49835;BME280;35729;52.090;13.162;2023-08-12T07:27:39;101114.22;;;22.42;62.72
49835;BME280;35729;52.090;13.162;2023-08-12T07:30:09;101117.22;;;22.50;62.16
49835;BME280;35729;52.090;13.162;2023-08-12T07:32:38;101121.22;;;22.57;61.97
49835;BME280;35729;52.090;13.162;2023-08-12T07:35:07;101116.19;;;22.66;61.54
49835;BME280;35729;52.090;13.162;2023-08-12T07:37:36;101111.94;;;22.76;61.17
49835;BME280;35729;52.090;13.162;2023-08-12T07:40:08;101107.69;;;22.86;61.08
49835;BME280;35729;52.090;13.162;2023-08-12T07:42:38;101111.44;;;22.97;60.90
49835;BME280;35729;52.090;13.162;2023-08-12T07:45:08;101109.63;;;23.10;60.77
49835;BME280;35729;52.090;13.162;2023-08-12T07:47:36;101113.31;;;23.22;60.28
49835;BME280;35729;52.090;13.162;2023-08-12T07:50:06;101103.56;;;23.34;59.75
49835;BME280;35729;52.090;13.162;2023-08-12T07:52:35;101107.22;;;23.46;60.16
49835;BME280;35729;52.090;13.162;2023-08-12T07:55:04;101101.84;;;23.58;59.41
49835;BME280;35729;52.090;13.162;2023-08-12T07:57:35;101101.94;;;23.70;59.27
49835;BME280;35729;52.090;13.162;2023-08-12T08:00:05;101103.75;;;23.82;58.95
49835;BME280;35729;52.090;13.162;2023-08-12T08:02:35;101098.66;;;23.90;58.59
49835;BME280;35729;52.090;13.162;2023-08-12T08:05:04;101105.34;;;23.98;58.31
49835;BME280;35729;52.090;13.162;2023-08-12T08:07:33;101095.88;;;24.05;57.88
49835;BME280;35729;52.090;13.162;2023-08-12T08:10:02;101106.13;;;24.11;57.39
49835;BME280;35729;52.090;13.162;2023-08-12T08:12:30;101102.28;;;24.15;57.31
49835;BME280;35729;52.090;13.162;2023-08-12T08:15:02;101110.94;;;24.19;56.85
49835;BME280;35729;52.090;13.162;2023-08-12T08:17:30;101105.22;;;24.23;56.87
49835;BME280;35729;52.090;13.162;2023-08-12T08:19:59;101101.25;;;24.29;56.66
49835;BME280;35729;52.090;13.162;2023-08-12T08:22:28;101097.13;;;24.36;56.50
49835;BME280;35729;52.090;13.162;2023-08-12T08:24:56;101096.59;;;24.44;56.10
49835;BME280;35729;52.090;13.162;2023-08-12T08:27:25;101091.59;;;24.51;55.86
49835;BME280;35729;52.090;13.162;2023-08-12T08:29:53;101101.63;;;24.60;55.98
49835;BME280;35729;52.090;13.162;2023-08-12T08:32:25;101107.19;;;24.70;55.98
49835;BME280;35729;52.090;13.162;2023-08-12T08:34:53;101109.91;;;24.81;55.77
49835;BME280;35729;52.090;13.162;2023-08-12T08:37:22;101112.63;;;24.93;55.19
49835;BME280;35729;52.090;13.162;2023-08-12T08:39:51;101110.19;;;25.01;55.50
49835;BME280;35729;52.090;13.162;2023-08-12T08:42:20;101116.09;;;25.06;55.05
49835;BME280;35729;52.090;13.162;2023-08-12T08:44:52;101105.22;;;25.08;54.54
49835;BME280;35729;52.090;13.162;2023-08-12T08:47:25;101110.34;;;25.11;54.40
49835;BME280;35729;52.090;13.162;2023-08-12T08:49:54;101110.22;;;25.12;53.07
49835;BME280;35729;52.090;13.162;2023-08-12T08:52:24;101110.97;;;25.14;53.94
49835;BME280;35729;52.090;13.162;2023-08-12T08:54:53;101118.78;;;25.17;54.04
49835;BME280;35729;52.090;13.162;2023-08-12T08:57:21;101118.66;;;25.19;53.89
49835;BME280;35729;52.090;13.162;2023-08-12T08:59:50;101116.59;;;25.23;53.86
49835;BME280;35729;52.090;13.162;2023-08-12T09:02:18;101112.69;;;25.27;53.73
49835;BME280;35729;52.090;13.162;2023-08-12T09:04:50;101115.13;;;25.30;53.88
49835;BME280;35729;52.090;13.162;2023-08-12T09:07:20;101118.09;;;25.38;53.19
49835;BME280;35729;52.090;13.162;2023-08-12T09:09:52;101127.41;;;25.45;53.38
49835;BME280;35729;52.090;13.162;2023-08-12T09:12:21;101121.50;;;25.51;53.28
49835;BME280;35729;52.090;13.162;2023-08-12T09:14:50;101118.34;;;25.58;53.30
49835;BME280;35729;52.090;13.162;2023-08-12T09:17:19;101115.16;;;25.64;53.09
49835;BME280;35729;52.090;13.162;2023-08-12T09:19:50;101114.56;;;25.72;52.29
49835;BME280;35729;52.090;13.162;2023-08-12T09:22:19;101116.75;;;25.78;52.35
49835;BME280;35729;52.090;13.162;2023-08-12T09:24:49;101117.00;;;25.86;52.75
49835;BME280;35729;52.090;13.162;2023-08-12T09:27:18;101121.47;;;25.97;52.89
49835;BME280;35729;52.090;13.162;2023-08-12T09:29:47;101114.53;;;26.06;52.61
49835;BME280;35729;52.090;13.162;2023-08-12T09:32:18;101113.34;;;26.10;52.05
49835;BME280;35729;52.090;13.162;2023-08-12T09:34:53;101118.72;;;26.10;50.86
49835;BME280;35729;52.090;13.162;2023-08-12T09:37:23;101124.44;;;26.05;51.82
49835;BME280;35729;52.090;13.162;2023-08-12T09:39:52;101122.09;;;26.00;51.97
49835;BME280;35729;52.090;13.162;2023-08-12T09:42:20;101120.50;;;25.98;51.80
49835;BME280;35729;52.090;13.162;2023-08-12T09:44:49;101118.09;;;25.95;52.25
49835;BME280;35729;52.090;13.162;2023-08-12T09:47:17;101102.31;;;25.90;52.30
49835;BME280;35729;52.090;13.162;2023-08-12T09:49:46;101112.47;;;25.86;52.33
49835;BME280;35729;52.090;13.162;2023-08-12T09:52:17;101105.63;;;25.82;53.51
49835;BME280;35729;52.090;13.162;2023-08-12T09:54:46;101108.69;;;25.78;53.61
49835;BME280;35729;52.090;13.162;2023-08-12T09:57:16;101101.13;;;25.72;54.40
49835;BME280;35729;52.090;13.162;2023-08-12T09:59:48;101101.75;;;25.64;54.85
49835;BME280;35729;52.090;13.162;2023-08-12T10:02:20;101094.16;;;25.58;55.23
49835;BME280;35729;52.090;13.162;2023-08-12T10:04:50;101096.50;;;25.51;55.66
49835;BME280;35729;52.090;13.162;2023-08-12T10:07:24;101100.41;;;25.47;56.11
49835;BME280;35729;52.090;13.162;2023-08-12T10:09:53;101095.25;;;25.44;56.46
49835;BME280;35729;52.090;13.162;2023-08-12T10:12:22;101104.06;;;25.46;57.11
49835;BME280;35729;52.090;13.162;2023-08-12T10:14:51;101101.88;;;25.51;56.90
49835;BME280;35729;52.090;13.162;2023-08-12T10:17:21;101099.66;;;25.56;57.22
49835;BME280;35729;52.090;13.162;2023-08-12T10:19:54;101092.22;;;25.60;57.13
49835;BME280;35729;52.090;13.162;2023-08-12T10:22:26;101088.44;;;25.62;57.00
49835;BME280;35729;52.090;13.162;2023-08-12T10:24:54;101100.03;;;25.63;56.96
49835;BME280;35729;52.090;13.162;2023-08-12T10:27:25;101091.00;;;25.64;57.50
49835;BME280;35729;52.090;13.162;2023-08-12T10:29:56;101081.97;;;25.65;58.13
49835;BME280;35729;52.090;13.162;2023-08-12T10:32:25;101083.66;;;25.66;58.03
49835;BME280;35729;52.090;13.162;2023-08-12T10:34:56;101069.28;;;25.67;58.30
49835;BME280;35729;52.090;13.162;2023-08-12T10:37:31;101073.91;;;25.65;58.74
49835;BME280;35729;52.090;13.162;2023-08-12T10:40:03;101067.78;;;25.63;59.44
49835;BME280;35729;52.090;13.162;2023-08-12T10:42:40;101074.88;;;25.64;59.93
49835;BME280;35729;52.090;13.162;2023-08-12T10:45:10;101084.78;;;25.63;59.72
49835;BME280;35729;52.090;13.162;2023-08-12T10:47:40;101093.06;;;25.60;59.81
49835;BME280;35729;52.090;13.162;2023-08-12T10:50:19;101098.69;;;25.57;59.69
49835;BME280;35729;52.090;13.162;2023-08-12T10:52:52;101097.09;;;25.55;60.02
49835;BME280;35729;52.090;13.162;2023-08-12T10:55:22;101083.19;;;25.49;60.39
49835;BME280;35729;52.090;13.162;2023-08-12T10:57:51;101077.34;;;25.44;60.31
49835;BME280;35729;52.090;13.162;2023-08-12T11:00:23;101082.22;;;25.39;60.75
49835;BME280;35729;52.090;13.162;2023-08-12T11:02:53;101084.63;;;25.31;60.93
49835;BME280;35729;52.090;13.162;2023-08-12T11:05:22;101100.38;;;25.24;61.29
49835;BME280;35729;52.090;13.162;2023-08-12T11:07:59;101099.38;;;25.14;61.96
49835;BME280;35729;52.090;13.162;2023-08-12T11:10:32;101096.69;;;25.02;61.97
49835;BME280;35729;52.090;13.162;2023-08-12T11:13:02;101107.13;;;24.94;62.41
49835;BME280;35729;52.090;13.162;2023-08-12T11:15:33;101107.72;;;24.86;62.83
49835;BME280;35729;52.090;13.162;2023-08-12T11:18:03;101101.84;;;24.81;63.54
49835;BME280;35729;52.090;13.162;2023-08-12T11:20:33;101100.25;;;24.79;63.43
49835;BME280;35729;52.090;13.162;2023-08-12T11:23:05;101095.03;;;24.77;64.38
49835;BME280;35729;52.090;13.162;2023-08-12T11:25:36;101101.34;;;24.76;63.80
49835;BME280;35729;52.090;13.162;2023-08-12T11:28:06;101096.22;;;24.73;64.13
49835;BME280;35729;52.090;13.162;2023-08-12T11:30:35;101099.97;;;24.70;64.40
49835;BME280;35729;52.090;13.162;2023-08-12T11:33:04;101091.84;;;24.72;63.71
49835;BME280;35729;52.090;13.162;2023-08-12T11:35:33;101088.41;;;24.70;64.06
49835;BME280;35729;52.090;13.162;2023-08-12T11:38:05;101091.09;;;24.70;64.38
49835;BME280;35729;52.090;13.162;2023-08-12T11:40:35;101089.50;;;24.67;64.21
49835;BME280;35729;52.090;13.162;2023-08-12T11:43:03;101087.91;;;24.65;64.09
49835;BME280;35729;52.090;13.162;2023-08-12T11:45:32;101093.44;;;24.62;63.27
49835;BME280;35729;52.090;13.162;2023-08-12T11:48:00;101082.97;;;24.59;63.35
49835;BME280;35729;52.090;13.162;2023-08-12T11:50:30;101074.19;;;24.56;63.16
49835;BME280;35729;52.090;13.162;2023-08-12T11:52:59;101068.09;;;24.54;63.19
49835;BME280;35729;52.090;13.162;2023-08-12T11:55:30;101065.41;;;24.54;62.30
49835;BME280;35729;52.090;13.162;2023-08-12T11:57:58;101064.44;;;24.55;62.21
49835;BME280;35729;52.090;13.162;2023-08-12T12:00:27;101054.69;;;24.54;62.35
49835;BME280;35729;52.090;13.162;2023-08-12T12:02:56;101051.75;;;24.58;62.09
49835;BME280;35729;52.090;13.162;2023-08-12T12:05:27;101054.31;;;24.59;62.43
49835;BME280;35729;52.090;13.162;2023-08-12T12:07:56;101045.16;;;24.62;62.21
49835;BME280;35729;52.090;13.162;2023-08-12T12:10:28;101024.59;;;24.62;62.28
49835;BME280;35729;52.090;13.162;2023-08-12T12:13:00;101012.78;;;24.65;62.62
49835;BME280;35729;52.090;13.162;2023-08-12T12:15:38;101013.63;;;24.65;62.44
49835;BME280;35729;52.090;13.162;2023-08-12T12:18:09;101008.28;;;24.65;62.37
49835;BME280;35729;52.090;13.162;2023-08-12T12:20:42;101008.28;;;24.65;62.99
49835;BME280;35729;52.090;13.162;2023-08-12T12:23:11;100997.44;;;24.67;62.84
49835;BME280;35729;52.090;13.162;2023-08-12T12:25:40;101001.72;;;24.69;62.61
49835;BME280;35729;52.090;13.162;2023-08-12T12:28:12;100994.16;;;24.75;62.08
49835;BME280;35729;52.090;13.162;2023-08-12T12:30:40;100983.94;;;24.80;61.86
49835;BME280;35729;52.090;13.162;2023-08-12T12:33:09;100981.25;;;24.91;61.84
49835;BME280;35729;52.090;13.162;2023-08-12T12:35:37;100971.38;;;25.03;61.11
49835;BME280;35729;52.090;13.162;2023-08-12T12:38:06;100963.56;;;25.23;60.74
49835;BME280;35729;52.090;13.162;2023-08-12T12:40:35;100958.44;;;25.42;60.28
49835;BME280;35729;52.090;13.162;2023-08-12T12:43:03;100962.16;;;25.62;59.24
49835;BME280;35729;52.090;13.162;2023-08-12T12:45:34;100948.38;;;25.88;58.72
49835;BME280;35729;52.090;13.162;2023-08-12T12:48:04;100958.56;;;26.17;57.84
49835;BME280;35729;52.090;13.162;2023-08-12T12:50:32;100952.53;;;26.46;57.15
49835;BME280;35729;52.090;13.162;2023-08-12T12:53:01;100941.72;;;26.78;56.51